Hauptseite
METAR-TAF:

METAR-TAF

Flughäfen :

Bujumbura, Burundi

Flughafen Bujumbura

Breite: 03-19S, Länge: 029-19E, Höhe: 782 m

METAR: fehlend

Zeit: 16:40 (14:40 UTC)

Prognose

Neuester Wetterbericht von vor 5 Stunden und 40 Minuten, um 09:00 UTC
Gültige Prognose vom 22 um 12 UTC bis 23 um 18 UTC
Wind kt aus Nord, Böen bis zu 20 kt
Sichtweite 10 km oder mehr
keine Wolken unter 1500 m und keine Kumulonimbus oder Gewitterwolken
Übergehend zu
vom 23 um 03 UTC bis 23 um 05 UTC
Wind kt aus Nord
Sichtweite 10 km oder mehr
keine Wolken unter 1500 m und keine Kumulonimbus oder Gewitterwolken
trockener Dunst

TAF: HBBA 220900Z 2212/2318 18010G20KT 8000 FEW030 SCT100 BECMG2216/2218 00000KT CAVOK BECMG 2303/2305 5000 HZ NSC BECMG2308/2310 18010KT 7000 FEW030 BECMG2316/2318 00000KT CAVOK

Wetterbeobachtungen und Prognosen von mehr als 4000 Flughäfen (METAR und TAF Bericht).

Die verfügbaren Stationen werden durch gelbe und rote Markierungen auf der Karte dargestellt.

Führen Sie die Maus auf sie, um den Namen der Station zu sehen.

Darauf klicken, um die Beobachtung von Wetterbeobachtungen und Prognosen zu sehen.

Um die Karte zu ändern : klicken Sie auf den grünen Tasten mit einem schwarzen Kreuz Zum Vergrößern, auf den grünen Button mit einem Gedankenstrich zu verkleinern, oder auf die grünen Pfeile für benachbarte Karten.


METAR-TAF: